createdAt,value
2022-10-12T00:02:59.750Z,11.22
2022-10-12T00:06:58.270Z,11.21
2022-10-12T00:10:56.490Z,11.20
2022-10-12T00:14:54.698Z,11.20
2022-10-12T00:23:18.758Z,11.16
2022-10-12T00:27:17.298Z,11.16
2022-10-12T00:31:19.561Z,11.16
2022-10-12T00:35:31.450Z,11.17
2022-10-12T00:39:30.226Z,11.16
2022-10-12T00:43:43.728Z,11.16
2022-10-12T00:47:59.270Z,11.17
2022-10-12T00:52:02.963Z,11.17
2022-10-12T00:56:22.497Z,11.16
2022-10-12T01:00:22.110Z,11.15
2022-10-12T01:04:22.489Z,11.11
2022-10-12T01:08:22.132Z,11.06
2022-10-12T01:12:35.125Z,11.03
2022-10-12T01:17:10.438Z,11.01
2022-10-12T01:20:13.033Z,11.00
2022-10-12T01:24:05.191Z,11.02
2022-10-12T01:28:45.948Z,11.03
2022-10-12T01:32:53.454Z,11.08
2022-10-12T01:37:38.060Z,11.10
2022-10-12T01:41:57.029Z,11.11
2022-10-12T01:45:17.818Z,11.13
2022-10-12T01:49:33.367Z,11.13
2022-10-12T01:53:50.054Z,11.13
2022-10-12T01:58:26.070Z,11.12
2022-10-12T02:02:33.310Z,11.09
2022-10-12T02:07:01.805Z,11.06
2022-10-12T02:11:10.296Z,11.04
2022-10-12T02:15:11.432Z,11.02
2022-10-12T02:19:13.966Z,11.01
2022-10-12T02:23:13.402Z,11.00
2022-10-12T02:27:15.059Z,10.99
2022-10-12T02:31:35.180Z,10.98
2022-10-12T02:35:38.500Z,10.98
2022-10-12T02:39:46.069Z,11.00
2022-10-12T02:43:49.570Z,11.01
2022-10-12T02:47:51.438Z,11.01
2022-10-12T02:51:50.641Z,11.03
2022-10-12T02:55:54.762Z,11.05
2022-10-12T02:59:53.141Z,11.06
2022-10-12T03:04:05.557Z,11.05
2022-10-12T03:08:04.383Z,11.06
2022-10-12T03:12:03.044Z,11.06
2022-10-12T03:16:14.846Z,11.08
2022-10-12T03:20:12.766Z,11.08
2022-10-12T03:24:24.706Z,11.09
2022-10-12T03:28:36.801Z,11.08
2022-10-12T03:32:49.068Z,11.08
2022-10-12T03:36:47.106Z,11.08
2022-10-12T03:40:47.018Z,11.05
2022-10-12T03:44:45.560Z,11.03
2022-10-12T03:48:57.469Z,11.02
2022-10-12T03:52:55.599Z,11.01
2022-10-12T03:57:07.378Z,11.00
2022-10-12T04:01:05.892Z,11.00
2022-10-12T04:05:18.510Z,10.98
2022-10-12T04:09:17.809Z,10.98
2022-10-12T04:13:29.957Z,10.99
2022-10-12T04:17:28.314Z,10.99
2022-10-12T04:21:40.602Z,10.98
2022-10-12T04:25:39.971Z,10.98
2022-10-12T04:29:38.482Z,10.97
2022-10-12T04:33:36.961Z,10.96
2022-10-12T04:37:48.873Z,10.93
2022-10-12T04:42:02.023Z,10.90
2022-10-12T04:46:01.089Z,10.88
2022-10-12T04:50:13.101Z,10.86
2022-10-12T04:54:11.817Z,10.86
2022-10-12T04:58:11.145Z,10.86
2022-10-12T05:02:23.589Z,10.87
2022-10-12T05:06:22.423Z,10.87
2022-10-12T05:10:20.749Z,10.87
2022-10-12T05:14:18.899Z,10.85
2022-10-12T05:18:30.971Z,10.83
2022-10-12T05:22:42.919Z,10.82
2022-10-12T05:26:41.779Z,10.84
2022-10-12T05:30:54.066Z,10.85
2022-10-12T05:34:52.490Z,10.87
2022-10-12T05:39:04.871Z,10.88
2022-10-12T05:43:03.629Z,10.90
2022-10-12T05:47:01.990Z,10.90
2022-10-12T05:51:14.244Z,10.90
2022-10-12T05:55:28.188Z,10.92
2022-10-12T05:59:04.371Z,10.94
2022-10-12T06:03:18.598Z,10.96
2022-10-12T06:07:17.282Z,10.98
2022-10-12T06:11:31.467Z,10.98
2022-10-12T06:15:46.990Z,11.00
2022-10-12T06:19:45.140Z,11.01
2022-10-12T06:23:43.777Z,11.02
2022-10-12T06:27:45.638Z,11.04
2022-10-12T06:31:58.060Z,11.08
2022-10-12T06:35:56.381Z,11.10
2022-10-12T06:40:08.970Z,11.13
2022-10-12T06:44:08.448Z,11.17
2022-10-12T06:48:20.422Z,11.19
2022-10-12T06:52:18.804Z,11.21
2022-10-12T06:56:17.350Z,11.22
2022-10-12T07:00:16.409Z,11.21
2022-10-12T07:04:28.417Z,11.22
2022-10-12T07:08:27.250Z,11.19
2022-10-12T07:12:40.061Z,11.19
2022-10-12T07:16:38.976Z,11.21
2022-10-12T07:20:51.725Z,11.22
2022-10-12T07:24:50.529Z,11.24
2022-10-12T07:28:49.832Z,11.26
2022-10-12T07:32:48.426Z,11.28
2022-10-12T07:37:00.689Z,11.30
2022-10-12T07:41:04.180Z,11.34
2022-10-12T07:45:05.409Z,11.39
2022-10-12T07:48:47.199Z,11.44
2022-10-12T07:53:02.172Z,11.51
2022-10-12T07:57:01.159Z,11.56
2022-10-12T08:01:07.172Z,11.63
2022-10-12T08:05:41.022Z,11.69
2022-10-12T08:10:20.641Z,11.80
2022-10-12T08:13:54.492Z,11.88
2022-10-12T08:17:53.149Z,11.99
2022-10-12T08:22:07.231Z,12.11
2022-10-12T08:26:06.970Z,12.22
2022-10-12T08:30:06.719Z,12.32
2022-10-12T08:34:05.591Z,12.41
2022-10-12T08:38:18.009Z,12.53
2022-10-12T08:42:16.640Z,12.65
2022-10-12T08:46:30.889Z,12.80
2022-10-12T08:50:36.094Z,12.81
2022-10-12T08:54:43.610Z,12.81
2022-10-12T08:58:48.903Z,12.84
2022-10-12T09:02:40.925Z,12.97
2022-10-12T09:07:01.237Z,13.10
2022-10-12T09:11:17.406Z,13.24
2022-10-12T09:15:20.309Z,13.53
2022-10-12T09:19:42.650Z,13.75
2022-10-12T09:23:44.316Z,13.86
2022-10-12T09:27:46.555Z,14.04
2022-10-12T09:32:00.504Z,14.30
2022-10-12T09:35:59.469Z,14.46
2022-10-12T09:39:59.053Z,14.61
2022-10-12T09:44:27.065Z,14.72
2022-10-12T09:49:06.029Z,14.69
2022-10-12T09:53:14.054Z,14.71
2022-10-12T09:57:25.238Z,14.85
2022-10-12T10:01:39.018Z,15.06
2022-10-12T10:05:39.021Z,15.21
2022-10-12T10:09:37.175Z,15.28
2022-10-12T10:13:38.121Z,15.30
2022-10-12T10:17:36.285Z,15.37
2022-10-12T10:21:38.108Z,15.44
2022-10-12T10:30:29.549Z,15.53
2022-10-12T10:34:43.483Z,15.33
2022-10-12T10:39:05.951Z,15.34
2022-10-12T10:42:22.766Z,15.30
2022-10-12T10:46:30.878Z,15.18
2022-10-12T10:50:50.143Z,15.05
2022-10-12T10:54:49.863Z,15.01
2022-10-12T10:58:56.419Z,15.04
2022-10-12T11:03:25.530Z,14.96
2022-10-12T11:07:47.853Z,14.86
2022-10-12T11:12:03.518Z,14.85
2022-10-12T11:16:29.788Z,14.92
2022-10-12T11:20:52.101Z,15.02
2022-10-12T11:25:01.851Z,15.11
2022-10-12T11:33:22.265Z,15.23
2022-10-12T11:37:27.799Z,15.30
2022-10-12T11:41:36.006Z,15.39
2022-10-12T11:45:43.629Z,15.48
2022-10-12T11:49:56.812Z,15.60
2022-10-12T11:54:49.276Z,15.70
2022-10-12T11:59:06.516Z,15.72
2022-10-12T12:03:11.870Z,15.67
2022-10-12T12:07:41.467Z,15.61
2022-10-12T12:11:40.139Z,15.54
2022-10-12T12:15:59.491Z,15.52
2022-10-12T12:20:04.969Z,15.52
2022-10-12T12:24:17.773Z,15.49
2022-10-12T12:28:23.044Z,15.47
2022-10-12T12:32:21.967Z,15.45
2022-10-12T12:36:38.695Z,15.49
2022-10-12T12:40:39.472Z,15.60
2022-10-12T12:44:42.082Z,15.71
2022-10-12T12:48:40.278Z,15.81
2022-10-12T12:52:58.346Z,15.93
2022-10-12T12:57:33.112Z,16.03
2022-10-12T13:01:34.420Z,16.13
2022-10-12T13:05:57.419Z,16.19
2022-10-12T13:10:11.901Z,16.25
2022-10-12T13:14:22.249Z,16.30
2022-10-12T13:18:49.244Z,16.37
2022-10-12T13:23:06.530Z,16.43
2022-10-12T13:31:43.520Z,16.52
2022-10-12T13:35:51.667Z,16.51
2022-10-12T13:40:04.599Z,16.43
2022-10-12T13:44:06.857Z,16.35
2022-10-12T13:48:05.690Z,16.23
2022-10-12T13:52:22.779Z,16.16
2022-10-12T13:56:25.427Z,16.14
2022-10-12T14:00:37.173Z,16.17
2022-10-12T14:04:36.420Z,16.20
2022-10-12T14:08:49.309Z,16.20
2022-10-12T14:12:51.031Z,16.16
2022-10-12T14:16:51.886Z,16.14
2022-10-12T14:21:17.699Z,16.15
2022-10-12T14:24:28.743Z,16.16
2022-10-12T14:28:35.754Z,16.16
2022-10-12T14:32:41.609Z,16.16
2022-10-12T14:37:15.889Z,16.13
2022-10-12T14:41:33.150Z,16.02
2022-10-12T14:45:33.374Z,15.88
2022-10-12T14:49:46.354Z,15.75
2022-10-12T14:53:44.909Z,15.63
2022-10-12T14:57:43.751Z,15.52
2022-10-12T15:01:45.193Z,15.42
2022-10-12T15:06:00.041Z,15.30
2022-10-12T15:09:59.684Z,15.21
2022-10-12T15:14:12.165Z,15.14
2022-10-12T15:18:11.455Z,15.06
2022-10-12T15:22:24.242Z,14.98
2022-10-12T15:26:41.416Z,14.94
2022-10-12T15:31:04.276Z,14.87
2022-10-12T15:35:00.427Z,14.79
2022-10-12T15:38:58.972Z,14.72
2022-10-12T15:42:59.726Z,14.62
2022-10-12T15:46:35.171Z,14.56
2022-10-12T15:50:44.133Z,14.55
2022-10-12T15:54:46.834Z,14.55
2022-10-12T15:58:48.879Z,14.56
2022-10-12T16:02:47.693Z,14.59
2022-10-12T16:06:46.280Z,14.64
2022-10-12T16:10:45.731Z,14.65
2022-10-12T16:14:43.846Z,14.68
2022-10-12T16:18:42.621Z,14.72
2022-10-12T16:22:41.490Z,14.75
2022-10-12T16:26:44.879Z,14.75
2022-10-12T16:30:44.227Z,14.74
2022-10-12T16:34:42.989Z,14.74
2022-10-12T16:38:43.083Z,14.75
2022-10-12T16:42:41.490Z,14.76
2022-10-12T16:46:40.231Z,14.78
2022-10-12T16:50:52.651Z,14.78
2022-10-12T16:54:52.911Z,14.79
2022-10-12T16:58:51.150Z,14.79
2022-10-12T17:02:51.209Z,14.80
2022-10-12T17:06:52.953Z,14.79
2022-10-12T17:10:51.589Z,14.78
2022-10-12T17:14:50.297Z,14.77
2022-10-12T17:18:48.999Z,14.76
2022-10-12T17:22:47.610Z,14.72
2022-10-12T17:26:51.735Z,14.67
2022-10-12T17:30:50.354Z,14.57
2022-10-12T17:34:50.831Z,14.45
2022-10-12T17:38:50.156Z,14.32
2022-10-12T17:42:49.235Z,14.23
2022-10-12T17:46:48.592Z,14.12
2022-10-12T17:50:50.335Z,13.97
2022-10-12T17:55:02.721Z,13.83
2022-10-12T17:59:03.711Z,13.74
2022-10-12T18:03:02.398Z,13.70
2022-10-12T18:07:01.852Z,13.63
2022-10-12T18:11:16.316Z,13.53
2022-10-12T18:15:29.189Z,13.43
2022-10-12T18:19:27.672Z,13.35
2022-10-12T18:23:26.452Z,13.28
2022-10-12T18:27:25.349Z,13.22
2022-10-12T18:31:26.309Z,13.17
2022-10-12T18:35:39.318Z,13.12
2022-10-12T18:39:56.605Z,13.06
2022-10-12T18:43:15.717Z,13.02
2022-10-12T18:47:14.441Z,12.95
2022-10-12T18:51:19.067Z,12.88
2022-10-12T18:55:17.511Z,12.82
2022-10-12T18:59:18.112Z,12.79
2022-10-12T19:03:30.412Z,12.74
2022-10-12T19:07:29.568Z,12.71
2022-10-12T19:11:34.632Z,12.69
2022-10-12T19:15:37.384Z,12.67
2022-10-12T19:19:35.378Z,12.65
2022-10-12T19:23:33.751Z,12.62
2022-10-12T19:27:35.111Z,12.60
2022-10-12T19:31:49.608Z,12.59
2022-10-12T19:35:47.892Z,12.56
2022-10-12T19:39:47.201Z,12.53
2022-10-12T19:44:01.002Z,12.49
2022-10-12T19:47:59.690Z,12.47
2022-10-12T19:51:58.891Z,12.45
2022-10-12T19:56:02.761Z,12.43
2022-10-12T20:00:01.482Z,12.42
2022-10-12T20:04:12.141Z,12.39
2022-10-12T20:08:27.961Z,12.37
2022-10-12T20:12:35.926Z,12.34
2022-10-12T20:16:48.039Z,12.31
2022-10-12T20:20:46.572Z,12.30
2022-10-12T20:24:45.740Z,12.28
2022-10-12T20:28:45.362Z,12.25
2022-10-12T20:32:46.476Z,12.22
2022-10-12T20:36:25.874Z,12.19
2022-10-12T20:40:38.537Z,12.17
2022-10-12T20:44:38.000Z,12.17
2022-10-12T20:48:38.560Z,12.17
2022-10-12T20:52:50.751Z,12.18
2022-10-12T20:56:52.052Z,12.19
2022-10-12T21:01:10.127Z,12.20
2022-10-12T21:05:09.283Z,12.19
2022-10-12T21:09:08.182Z,12.19
2022-10-12T21:13:07.369Z,12.15
2022-10-12T21:17:07.228Z,12.11
2022-10-12T21:21:11.940Z,12.07
2022-10-12T21:25:11.053Z,12.04
2022-10-12T21:29:10.544Z,12.00
2022-10-12T21:33:22.922Z,11.96
2022-10-12T21:37:21.570Z,11.92
2022-10-12T21:41:34.636Z,11.88
2022-10-12T21:45:34.048Z,11.85
2022-10-12T21:49:32.870Z,11.83
2022-10-12T21:53:32.009Z,11.80
2022-10-12T21:57:30.779Z,11.77
2022-10-12T22:01:38.721Z,11.75
2022-10-12T22:05:56.374Z,11.74
2022-10-12T22:09:19.150Z,11.74
2022-10-12T22:13:18.102Z,11.74
2022-10-12T22:17:19.161Z,11.76
2022-10-12T22:21:32.784Z,11.76
2022-10-12T22:25:45.301Z,11.75
2022-10-12T22:29:44.145Z,11.75
2022-10-12T22:33:56.889Z,11.73
2022-10-12T22:38:10.532Z,11.72
2022-10-12T22:42:22.547Z,11.70
2022-10-12T22:46:23.770Z,11.70
2022-10-12T22:50:22.138Z,11.69
2022-10-12T22:54:20.480Z,11.69
2022-10-12T22:58:19.350Z,11.71
2022-10-12T23:02:18.366Z,11.73
2022-10-12T23:06:18.458Z,11.74
2022-10-12T23:10:17.067Z,11.72
2022-10-12T23:14:15.240Z,11.70
2022-10-12T23:18:13.704Z,11.66
2022-10-12T23:22:11.918Z,11.61
2022-10-12T23:26:26.218Z,11.59
2022-10-12T23:30:24.925Z,11.55
2022-10-12T23:34:36.598Z,11.53
2022-10-12T23:38:36.520Z,11.51
2022-10-12T23:42:34.679Z,11.49
2022-10-12T23:46:46.360Z,11.49
2022-10-12T23:50:47.196Z,11.50
2022-10-12T23:58:34.892Z,11.52
